sensor_id;sensor_type;location;lat;lon;timestamp;P1;durP1;ratioP1;P2;durP2;ratioP2
7263;SDS011;3673;52.480;13.348;2023-06-26T00:01:06;13.90;;;11.30;;
7263;SDS011;3673;52.480;13.348;2023-06-26T00:03:32;15.25;;;10.50;;
7263;SDS011;3673;52.480;13.348;2023-06-26T00:05:59;16.45;;;11.23;;
7263;SDS011;3673;52.480;13.348;2023-06-26T00:08:26;11.75;;;10.50;;
7263;SDS011;3673;52.480;13.348;2023-06-26T00:10:54;14.48;;;11.27;;
7263;SDS011;3673;52.480;13.348;2023-06-26T00:13:21;17.80;;;11.77;;
7263;SDS011;3673;52.480;13.348;2023-06-26T00:15:49;11.85;;;10.38;;
7263;SDS011;3673;52.480;13.348;2023-06-26T00:18:16;12.43;;;10.88;;
7263;SDS011;3673;52.480;13.348;2023-06-26T00:20:43;13.32;;;11.13;;
7263;SDS011;3673;52.480;13.348;2023-06-26T00:23:11;14.27;;;11.75;;
7263;SDS011;3673;52.480;13.348;2023-06-26T00:25:38;12.50;;;11.00;;
7263;SDS011;3673;52.480;13.348;2023-06-26T00:28:06;15.45;;;11.52;;
7263;SDS011;3673;52.480;13.348;2023-06-26T00:30:32;14.07;;;11.90;;
7263;SDS011;3673;52.480;13.348;2023-06-26T00:32:59;13.43;;;11.35;;
7263;SDS011;3673;52.480;13.348;2023-06-26T00:35:27;13.18;;;11.77;;
7263;SDS011;3673;52.480;13.348;2023-06-26T00:37:53;16.83;;;12.00;;
7263;SDS011;3673;52.480;13.348;2023-06-26T00:40:20;15.32;;;11.63;;
7263;SDS011;3673;52.480;13.348;2023-06-26T00:42:47;15.00;;;11.73;;
7263;SDS011;3673;52.480;13.348;2023-06-26T00:45:15;13.82;;;12.38;;
7263;SDS011;3673;52.480;13.348;2023-06-26T00:47:42;16.73;;;11.07;;
7263;SDS011;3673;52.480;13.348;2023-06-26T00:50:09;14.18;;;11.95;;
7263;SDS011;3673;52.480;13.348;2023-06-26T00:52:37;13.95;;;11.80;;
7263;SDS011;3673;52.480;13.348;2023-06-26T00:55:04;14.25;;;12.40;;
7263;SDS011;3673;52.480;13.348;2023-06-26T00:57:32;13.15;;;11.60;;
7263;SDS011;3673;52.480;13.348;2023-06-26T00:59:59;14.63;;;12.07;;
7263;SDS011;3673;52.480;13.348;2023-06-26T01:02:30;12.85;;;11.52;;
7263;SDS011;3673;52.480;13.348;2023-06-26T01:04:58;13.15;;;11.80;;
7263;SDS011;3673;52.480;13.348;2023-06-26T01:07:28;13.10;;;11.80;;
7263;SDS011;3673;52.480;13.348;2023-06-26T01:09:57;14.38;;;11.75;;
7263;SDS011;3673;52.480;13.348;2023-06-26T01:12:24;15.13;;;12.00;;
7263;SDS011;3673;52.480;13.348;2023-06-26T01:14:51;13.43;;;11.95;;
7263;SDS011;3673;52.480;13.348;2023-06-26T01:17:18;14.18;;;11.95;;
7263;SDS011;3673;52.480;13.348;2023-06-26T01:19:47;12.90;;;11.55;;
7263;SDS011;3673;52.480;13.348;2023-06-26T01:22:17;14.57;;;12.10;;
7263;SDS011;3673;52.480;13.348;2023-06-26T01:24:53;12.80;;;11.52;;
7263;SDS011;3673;52.480;13.348;2023-06-26T01:27:31;13.50;;;11.85;;
7263;SDS011;3673;52.480;13.348;2023-06-26T01:29:59;14.15;;;12.10;;
7263;SDS011;3673;52.480;13.348;2023-06-26T01:32:29;13.63;;;12.23;;
7263;SDS011;3673;52.480;13.348;2023-06-26T01:34:57;13.50;;;12.10;;
7263;SDS011;3673;52.480;13.348;2023-06-26T01:37:26;12.93;;;11.63;;
7263;SDS011;3673;52.480;13.348;2023-06-26T01:39:53;15.57;;;13.20;;
7263;SDS011;3673;52.480;13.348;2023-06-26T01:42:19;13.55;;;12.25;;
7263;SDS011;3673;52.480;13.348;2023-06-26T01:44:48;21.50;;;12.70;;
7263;SDS011;3673;52.480;13.348;2023-06-26T01:47:19;13.02;;;11.65;;
7263;SDS011;3673;52.480;13.348;2023-06-26T01:49:52;13.82;;;11.90;;
7263;SDS011;3673;52.480;13.348;2023-06-26T01:52:27;13.35;;;12.10;;
7263;SDS011;3673;52.480;13.348;2023-06-26T01:55:08;13.70;;;12.30;;
7263;SDS011;3673;52.480;13.348;2023-06-26T01:57:47;14.00;;;12.60;;
7263;SDS011;3673;52.480;13.348;2023-06-26T02:00:17;16.48;;;12.20;;
7263;SDS011;3673;52.480;13.348;2023-06-26T02:02:46;19.15;;;12.98;;
7263;SDS011;3673;52.480;13.348;2023-06-26T02:05:13;14.05;;;12.55;;
7263;SDS011;3673;52.480;13.348;2023-06-26T02:07:40;14.48;;;12.10;;
7263;SDS011;3673;52.480;13.348;2023-06-26T02:10:09;20.95;;;12.48;;
7263;SDS011;3673;52.480;13.348;2023-06-26T02:12:36;13.88;;;12.35;;
7263;SDS011;3673;52.480;13.348;2023-06-26T02:15:04;13.93;;;12.52;;
7263;SDS011;3673;52.480;13.348;2023-06-26T02:17:33;15.00;;;12.25;;
7263;SDS011;3673;52.480;13.348;2023-06-26T02:20:00;14.27;;;12.75;;
7263;SDS011;3673;52.480;13.348;2023-06-26T02:22:27;14.30;;;12.45;;
7263;SDS011;3673;52.480;13.348;2023-06-26T02:24:54;14.20;;;12.18;;
7263;SDS011;3673;52.480;13.348;2023-06-26T02:27:21;14.93;;;12.68;;
7263;SDS011;3673;52.480;13.348;2023-06-26T02:29:47;14.93;;;12.25;;
7263;SDS011;3673;52.480;13.348;2023-06-26T02:32:14;17.08;;;12.82;;
7263;SDS011;3673;52.480;13.348;2023-06-26T02:34:42;14.80;;;12.65;;
7263;SDS011;3673;52.480;13.348;2023-06-26T02:37:09;14.85;;;13.35;;
7263;SDS011;3673;52.480;13.348;2023-06-26T02:39:36;14.18;;;12.65;;
7263;SDS011;3673;52.480;13.348;2023-06-26T02:42:03;15.02;;;12.52;;
7263;SDS011;3673;52.480;13.348;2023-06-26T02:44:30;16.45;;;13.38;;
7263;SDS011;3673;52.480;13.348;2023-06-26T02:46:57;14.27;;;12.88;;
7263;SDS011;3673;52.480;13.348;2023-06-26T02:49:23;19.13;;;13.45;;
7263;SDS011;3673;52.480;13.348;2023-06-26T02:51:51;14.45;;;12.65;;
7263;SDS011;3673;52.480;13.348;2023-06-26T02:54:18;14.63;;;13.00;;
7263;SDS011;3673;52.480;13.348;2023-06-26T02:56:45;17.58;;;12.63;;
7263;SDS011;3673;52.480;13.348;2023-06-26T02:59:12;15.38;;;13.23;;
7263;SDS011;3673;52.480;13.348;2023-06-26T03:01:38;16.95;;;12.88;;
7263;SDS011;3673;52.480;13.348;2023-06-26T03:04:05;17.10;;;13.00;;
7263;SDS011;3673;52.480;13.348;2023-06-26T03:06:32;17.98;;;13.68;;
7263;SDS011;3673;52.480;13.348;2023-06-26T03:09:00;16.00;;;13.02;;
7263;SDS011;3673;52.480;13.348;2023-06-26T03:11:27;15.32;;;13.70;;
7263;SDS011;3673;52.480;13.348;2023-06-26T03:13:54;17.00;;;13.82;;
7263;SDS011;3673;52.480;13.348;2023-06-26T03:16:21;14.95;;;13.35;;
7263;SDS011;3673;52.480;13.348;2023-06-26T03:18:47;15.65;;;13.95;;
7263;SDS011;3673;52.480;13.348;2023-06-26T03:21:14;15.20;;;13.60;;
7263;SDS011;3673;52.480;13.348;2023-06-26T03:23:41;15.88;;;13.55;;
7263;SDS011;3673;52.480;13.348;2023-06-26T03:26:09;15.68;;;13.75;;
7263;SDS011;3673;52.480;13.348;2023-06-26T03:28:35;17.58;;;14.23;;
7263;SDS011;3673;52.480;13.348;2023-06-26T03:31:02;15.00;;;13.40;;
7263;SDS011;3673;52.480;13.348;2023-06-26T03:33:29;17.77;;;13.00;;
7263;SDS011;3673;52.480;13.348;2023-06-26T03:35:56;17.33;;;13.38;;
7263;SDS011;3673;52.480;13.348;2023-06-26T03:38:24;15.38;;;13.77;;
7263;SDS011;3673;52.480;13.348;2023-06-26T03:40:51;15.15;;;13.60;;
7263;SDS011;3673;52.480;13.348;2023-06-26T03:43:19;15.23;;;13.63;;
7263;SDS011;3673;52.480;13.348;2023-06-26T03:45:46;18.13;;;13.68;;
7263;SDS011;3673;52.480;13.348;2023-06-26T03:48:12;15.95;;;14.25;;
7263;SDS011;3673;52.480;13.348;2023-06-26T03:50:39;15.25;;;13.60;;
7263;SDS011;3673;52.480;13.348;2023-06-26T03:53:06;15.82;;;13.90;;
7263;SDS011;3673;52.480;13.348;2023-06-26T03:55:32;17.55;;;13.70;;
7263;SDS011;3673;52.480;13.348;2023-06-26T03:58:00;14.70;;;13.10;;
7263;SDS011;3673;52.480;13.348;2023-06-26T04:00:28;15.75;;;14.15;;
7263;SDS011;3673;52.480;13.348;2023-06-26T04:02:55;15.15;;;13.55;;
7263;SDS011;3673;52.480;13.348;2023-06-26T04:05:22;15.77;;;14.18;;
7263;SDS011;3673;52.480;13.348;2023-06-26T04:07:49;16.25;;;14.65;;
7263;SDS011;3673;52.480;13.348;2023-06-26T04:10:16;15.77;;;14.10;;
7263;SDS011;3673;52.480;13.348;2023-06-26T04:12:43;15.52;;;13.98;;
7263;SDS011;3673;52.480;13.348;2023-06-26T04:15:10;16.25;;;14.52;;
7263;SDS011;3673;52.480;13.348;2023-06-26T04:17:38;16.40;;;14.20;;
7263;SDS011;3673;52.480;13.348;2023-06-26T04:20:05;17.38;;;15.48;;
7263;SDS011;3673;52.480;13.348;2023-06-26T04:22:34;16.60;;;14.90;;
7263;SDS011;3673;52.480;13.348;2023-06-26T04:25:01;16.10;;;14.40;;
7263;SDS011;3673;52.480;13.348;2023-06-26T04:27:29;18.90;;;15.23;;
7263;SDS011;3673;52.480;13.348;2023-06-26T04:29:56;17.95;;;15.25;;
7263;SDS011;3673;52.480;13.348;2023-06-26T04:32:23;16.25;;;14.55;;
7263;SDS011;3673;52.480;13.348;2023-06-26T04:34:51;16.50;;;14.82;;
7263;SDS011;3673;52.480;13.348;2023-06-26T04:37:18;15.77;;;14.23;;
7263;SDS011;3673;52.480;13.348;2023-06-26T04:39:45;17.00;;;15.00;;
7263;SDS011;3673;52.480;13.348;2023-06-26T04:42:12;16.40;;;14.55;;
7263;SDS011;3673;52.480;13.348;2023-06-26T04:44:38;16.60;;;14.77;;
7263;SDS011;3673;52.480;13.348;2023-06-26T04:47:06;17.20;;;14.82;;
7263;SDS011;3673;52.480;13.348;2023-06-26T04:49:33;17.42;;;13.73;;
7263;SDS011;3673;52.480;13.348;2023-06-26T04:52:01;15.82;;;13.98;;
7263;SDS011;3673;52.480;13.348;2023-06-26T04:54:27;16.77;;;14.23;;
7263;SDS011;3673;52.480;13.348;2023-06-26T04:56:54;14.95;;;13.45;;
7263;SDS011;3673;52.480;13.348;2023-06-26T04:59:21;26.77;;;15.38;;
7263;SDS011;3673;52.480;13.348;2023-06-26T05:01:48;18.70;;;13.90;;
7263;SDS011;3673;52.480;13.348;2023-06-26T05:04:15;15.10;;;13.10;;
7263;SDS011;3673;52.480;13.348;2023-06-26T05:06:42;15.32;;;13.73;;
7263;SDS011;3673;52.480;13.348;2023-06-26T05:09:11;15.05;;;13.30;;
7263;SDS011;3673;52.480;13.348;2023-06-26T05:11:37;14.80;;;13.18;;
7263;SDS011;3673;52.480;13.348;2023-06-26T05:14:04;15.52;;;13.88;;
7263;SDS011;3673;52.480;13.348;2023-06-26T05:16:32;15.05;;;13.43;;
7263;SDS011;3673;52.480;13.348;2023-06-26T05:18:59;16.13;;;13.45;;
7263;SDS011;3673;52.480;13.348;2023-06-26T05:21:27;14.75;;;13.02;;
7263;SDS011;3673;52.480;13.348;2023-06-26T05:23:55;16.05;;;13.68;;
7263;SDS011;3673;52.480;13.348;2023-06-26T05:26:25;17.00;;;13.75;;
7263;SDS011;3673;52.480;13.348;2023-06-26T05:28:53;16.75;;;14.52;;
7263;SDS011;3673;52.480;13.348;2023-06-26T05:31:20;14.07;;;12.57;;
7263;SDS011;3673;52.480;13.348;2023-06-26T05:33:48;18.05;;;14.20;;
7263;SDS011;3673;52.480;13.348;2023-06-26T05:36:16;16.67;;;14.40;;
7263;SDS011;3673;52.480;13.348;2023-06-26T05:38:44;15.80;;;13.18;;
7263;SDS011;3673;52.480;13.348;2023-06-26T05:41:12;14.80;;;13.27;;
7263;SDS011;3673;52.480;13.348;2023-06-26T05:43:40;20.77;;;15.10;;
7263;SDS011;3673;52.480;13.348;2023-06-26T05:46:07;17.60;;;13.38;;
7263;SDS011;3673;52.480;13.348;2023-06-26T05:48:34;14.35;;;12.85;;
7263;SDS011;3673;52.480;13.348;2023-06-26T05:51:01;14.93;;;13.32;;
7263;SDS011;3673;52.480;13.348;2023-06-26T05:53:29;14.57;;;12.27;;
7263;SDS011;3673;52.480;13.348;2023-06-26T05:55:56;13.15;;;11.45;;
7263;SDS011;3673;52.480;13.348;2023-06-26T05:58:24;11.45;;;10.25;;
7263;SDS011;3673;52.480;13.348;2023-06-26T06:00:54;12.60;;;10.27;;
7263;SDS011;3673;52.480;13.348;2023-06-26T06:03:21;15.43;;;9.95;;
7263;SDS011;3673;52.480;13.348;2023-06-26T06:05:49;12.43;;;10.57;;
7263;SDS011;3673;52.480;13.348;2023-06-26T06:08:16;10.50;;;9.00;;
7263;SDS011;3673;52.480;13.348;2023-06-26T06:10:43;11.93;;;9.65;;
7263;SDS011;3673;52.480;13.348;2023-06-26T06:13:09;9.95;;;8.80;;
7263;SDS011;3673;52.480;13.348;2023-06-26T06:15:36;10.20;;;9.18;;
7263;SDS011;3673;52.480;13.348;2023-06-26T06:18:04;13.52;;;7.90;;
7263;SDS011;3673;52.480;13.348;2023-06-26T06:20:31;11.18;;;8.48;;
7263;SDS011;3673;52.480;13.348;2023-06-26T06:22:58;9.18;;;7.55;;
7263;SDS011;3673;52.480;13.348;2023-06-26T06:25:24;8.80;;;7.47;;
7263;SDS011;3673;52.480;13.348;2023-06-26T06:27:51;9.15;;;8.05;;
7263;SDS011;3673;52.480;13.348;2023-06-26T06:30:18;9.90;;;7.82;;
7263;SDS011;3673;52.480;13.348;2023-06-26T06:32:45;10.52;;;7.38;;
7263;SDS011;3673;52.480;13.348;2023-06-26T06:35:16;9.57;;;7.60;;
7263;SDS011;3673;52.480;13.348;2023-06-26T06:37:43;8.43;;;7.53;;
7263;SDS011;3673;52.480;13.348;2023-06-26T06:40:10;9.77;;;8.70;;
7263;SDS011;3673;52.480;13.348;2023-06-26T06:42:38;9.93;;;7.57;;
7263;SDS011;3673;52.480;13.348;2023-06-26T06:45:05;12.85;;;8.15;;
7263;SDS011;3673;52.480;13.348;2023-06-26T06:47:32;8.60;;;7.72;;
7263;SDS011;3673;52.480;13.348;2023-06-26T06:50:00;8.07;;;7.20;;
7263;SDS011;3673;52.480;13.348;2023-06-26T06:52:34;12.07;;;8.40;;
7263;SDS011;3673;52.480;13.348;2023-06-26T06:55:06;8.82;;;7.93;;
7263;SDS011;3673;52.480;13.348;2023-06-26T06:57:34;8.57;;;7.70;;
7263;SDS011;3673;52.480;13.348;2023-06-26T07:00:03;8.15;;;7.35;;
7263;SDS011;3673;52.480;13.348;2023-06-26T07:02:33;12.50;;;8.65;;
7263;SDS011;3673;52.480;13.348;2023-06-26T07:05:00;8.45;;;7.65;;
7263;SDS011;3673;52.480;13.348;2023-06-26T07:07:28;8.35;;;7.55;;
7263;SDS011;3673;52.480;13.348;2023-06-26T07:09:58;10.23;;;7.78;;
7263;SDS011;3673;52.480;13.348;2023-06-26T07:12:25;8.77;;;7.88;;
7263;SDS011;3673;52.480;13.348;2023-06-26T07:14:52;8.95;;;7.97;;
7263;SDS011;3673;52.480;13.348;2023-06-26T07:17:19;9.95;;;7.97;;
7263;SDS011;3673;52.480;13.348;2023-06-26T07:19:46;11.20;;;8.20;;
7263;SDS011;3673;52.480;13.348;2023-06-26T07:22:13;11.95;;;8.30;;
7263;SDS011;3673;52.480;13.348;2023-06-26T07:24:39;7.85;;;7.15;;
7263;SDS011;3673;52.480;13.348;2023-06-26T07:27:07;9.18;;;8.32;;
7263;SDS011;3673;52.480;13.348;2023-06-26T07:29:34;9.13;;;7.72;;
7263;SDS011;3673;52.480;13.348;2023-06-26T07:32:01;8.68;;;7.78;;
7263;SDS011;3673;52.480;13.348;2023-06-26T07:34:28;7.38;;;6.70;;
7263;SDS011;3673;52.480;13.348;2023-06-26T07:36:54;7.47;;;6.78;;
7263;SDS011;3673;52.480;13.348;2023-06-26T07:39:21;7.65;;;6.90;;
7263;SDS011;3673;52.480;13.348;2023-06-26T07:41:48;8.40;;;7.22;;
7263;SDS011;3673;52.480;13.348;2023-06-26T07:44:16;6.50;;;5.88;;
7263;SDS011;3673;52.480;13.348;2023-06-26T07:46:43;8.13;;;6.50;;
7263;SDS011;3673;52.480;13.348;2023-06-26T07:49:10;8.85;;;7.22;;
7263;SDS011;3673;52.480;13.348;2023-06-26T07:51:37;8.32;;;6.70;;
7263;SDS011;3673;52.480;13.348;2023-06-26T07:54:04;7.20;;;6.50;;
7263;SDS011;3673;52.480;13.348;2023-06-26T07:56:31;8.02;;;6.55;;
7263;SDS011;3673;52.480;13.348;2023-06-26T07:59:19;7.13;;;5.97;;
7263;SDS011;3673;52.480;13.348;2023-06-26T08:01:47;6.22;;;5.72;;
7263;SDS011;3673;52.480;13.348;2023-06-26T08:04:14;6.70;;;6.00;;
7263;SDS011;3673;52.480;13.348;2023-06-26T08:06:41;9.90;;;7.05;;
7263;SDS011;3673;52.480;13.348;2023-06-26T08:09:07;7.35;;;6.63;;
7263;SDS011;3673;52.480;13.348;2023-06-26T08:11:34;7.15;;;6.20;;
7263;SDS011;3673;52.480;13.348;2023-06-26T08:14:01;8.27;;;5.75;;
7263;SDS011;3673;52.480;13.348;2023-06-26T08:16:29;5.90;;;5.30;;
7263;SDS011;3673;52.480;13.348;2023-06-26T08:18:56;6.80;;;6.05;;
7263;SDS011;3673;52.480;13.348;2023-06-26T08:21:22;6.45;;;5.82;;
7263;SDS011;3673;52.480;13.348;2023-06-26T08:23:49;6.82;;;5.22;;
7263;SDS011;3673;52.480;13.348;2023-06-26T08:26:16;6.85;;;6.22;;
7263;SDS011;3673;52.480;13.348;2023-06-26T08:28:43;6.88;;;6.22;;
7263;SDS011;3673;52.480;13.348;2023-06-26T08:31:09;6.68;;;5.18;;
7263;SDS011;3673;52.480;13.348;2023-06-26T08:33:37;6.10;;;5.55;;
7263;SDS011;3673;52.480;13.348;2023-06-26T08:36:04;8.40;;;5.55;;
7263;SDS011;3673;52.480;13.348;2023-06-26T08:38:31;5.20;;;4.68;;
7263;SDS011;3673;52.480;13.348;2023-06-26T08:40:58;6.93;;;5.82;;
7263;SDS011;3673;52.480;13.348;2023-06-26T08:43:24;5.72;;;5.22;;
7263;SDS011;3673;52.480;13.348;2023-06-26T08:45:52;7.68;;;6.03;;
7263;SDS011;3673;52.480;13.348;2023-06-26T08:48:19;5.63;;;5.13;;
7263;SDS011;3673;52.480;13.348;2023-06-26T08:50:53;4.88;;;4.43;;
7263;SDS011;3673;52.480;13.348;2023-06-26T08:53:23;6.75;;;4.75;;
7263;SDS011;3673;52.480;13.348;2023-06-26T08:55:57;5.28;;;4.78;;
7263;SDS011;3673;52.480;13.348;2023-06-26T08:58:25;4.75;;;4.35;;
7263;SDS011;3673;52.480;13.348;2023-06-26T09:00:52;4.70;;;4.30;;
7263;SDS011;3673;52.480;13.348;2023-06-26T09:03:21;6.30;;;5.70;;
7263;SDS011;3673;52.480;13.348;2023-06-26T09:05:50;5.85;;;5.25;;
7263;SDS011;3673;52.480;13.348;2023-06-26T09:08:18;4.88;;;4.47;;
7263;SDS011;3673;52.480;13.348;2023-06-26T09:10:44;4.70;;;4.30;;
7263;SDS011;3673;52.480;13.348;2023-06-26T09:13:11;5.40;;;4.90;;
7263;SDS011;3673;52.480;13.348;2023-06-26T09:15:38;6.03;;;5.43;;
7263;SDS011;3673;52.480;13.348;2023-06-26T09:18:08;6.15;;;4.85;;
7263;SDS011;3673;52.480;13.348;2023-06-26T09:20:35;4.47;;;4.00;;
7263;SDS011;3673;52.480;13.348;2023-06-26T09:23:02;4.55;;;4.15;;
7263;SDS011;3673;52.480;13.348;2023-06-26T09:25:30;3.88;;;3.20;;
7263;SDS011;3673;52.480;13.348;2023-06-26T09:27:57;5.68;;;3.70;;
7263;SDS011;3673;52.480;13.348;2023-06-26T09:30:24;4.90;;;4.20;;
7263;SDS011;3673;52.480;13.348;2023-06-26T09:32:51;4.68;;;4.28;;
7263;SDS011;3673;52.480;13.348;2023-06-26T09:35:19;4.32;;;3.65;;
7263;SDS011;3673;52.480;13.348;2023-06-26T09:37:46;4.00;;;3.60;;
7263;SDS011;3673;52.480;13.348;2023-06-26T09:40:13;6.80;;;3.85;;
7263;SDS011;3673;52.480;13.348;2023-06-26T09:42:42;5.72;;;4.55;;
7263;SDS011;3673;52.480;13.348;2023-06-26T09:45:16;6.63;;;4.40;;
7263;SDS011;3673;52.480;13.348;2023-06-26T09:47:45;4.27;;;3.70;;
7263;SDS011;3673;52.480;13.348;2023-06-26T09:50:20;4.25;;;3.85;;
7263;SDS011;3673;52.480;13.348;2023-06-26T09:52:48;4.90;;;4.50;;
7263;SDS011;3673;52.480;13.348;2023-06-26T09:55:17;5.20;;;4.70;;
7263;SDS011;3673;52.480;13.348;2023-06-26T09:57:48;5.05;;;4.55;;
7263;SDS011;3673;52.480;13.348;2023-06-26T10:00:16;5.13;;;4.65;;
7263;SDS011;3673;52.480;13.348;2023-06-26T10:02:44;5.03;;;4.53;;
7263;SDS011;3673;52.480;13.348;2023-06-26T10:05:11;6.07;;;5.43;;
7263;SDS011;3673;52.480;13.348;2023-06-26T10:07:38;5.32;;;4.80;;
7263;SDS011;3673;52.480;13.348;2023-06-26T10:10:07;5.10;;;4.60;;
7263;SDS011;3673;52.480;13.348;2023-06-26T10:12:35;5.40;;;4.88;;
7263;SDS011;3673;52.480;13.348;2023-06-26T10:15:03;5.38;;;4.88;;
7263;SDS011;3673;52.480;13.348;2023-06-26T10:17:32;4.57;;;4.15;;
7263;SDS011;3673;52.480;13.348;2023-06-26T10:20:02;5.32;;;4.82;;
7263;SDS011;3673;52.480;13.348;2023-06-26T10:22:33;4.75;;;4.28;;
7263;SDS011;3673;52.480;13.348;2023-06-26T10:25:06;6.35;;;4.68;;
7263;SDS011;3673;52.480;13.348;2023-06-26T10:27:36;5.05;;;4.20;;
7263;SDS011;3673;52.480;13.348;2023-06-26T10:30:11;4.60;;;4.15;;
7263;SDS011;3673;52.480;13.348;2023-06-26T10:32:42;5.60;;;4.63;;
7263;SDS011;3673;52.480;13.348;2023-06-26T10:35:09;5.00;;;4.50;;
7263;SDS011;3673;52.480;13.348;2023-06-26T10:37:41;4.72;;;4.25;;
7263;SDS011;3673;52.480;13.348;2023-06-26T10:40:09;4.20;;;3.80;;
7263;SDS011;3673;52.480;13.348;2023-06-26T10:42:36;4.93;;;4.53;;
7263;SDS011;3673;52.480;13.348;2023-06-26T10:45:14;6.93;;;4.43;;
7263;SDS011;3673;52.480;13.348;2023-06-26T10:47:45;4.25;;;3.85;;
7263;SDS011;3673;52.480;13.348;2023-06-26T10:50:16;4.80;;;4.40;;
7263;SDS011;3673;52.480;13.348;2023-06-26T10:53:08;7.18;;;4.25;;
7263;SDS011;3673;52.480;13.348;2023-06-26T10:55:47;5.50;;;4.85;;
7263;SDS011;3673;52.480;13.348;2023-06-26T10:58:31;4.53;;;4.13;;
7263;SDS011;3673;52.480;13.348;2023-06-26T11:01:18;5.18;;;4.63;;
7263;SDS011;3673;52.480;13.348;2023-06-26T11:03:47;6.03;;;4.45;;
7263;SDS011;3673;52.480;13.348;2023-06-26T11:06:27;4.95;;;4.45;;
7263;SDS011;3673;52.480;13.348;2023-06-26T11:08:54;4.57;;;4.18;;
7263;SDS011;3673;52.480;13.348;2023-06-26T11:11:55;14.15;;;10.38;;
7263;SDS011;3673;52.480;13.348;2023-06-26T11:14:40;9.20;;;4.43;;
7263;SDS011;3673;52.480;13.348;2023-06-26T11:17:09;6.38;;;4.38;;
7263;SDS011;3673;52.480;13.348;2023-06-26T11:19:40;5.00;;;4.10;;
7263;SDS011;3673;52.480;13.348;2023-06-26T11:22:09;4.10;;;3.80;;
7263;SDS011;3673;52.480;13.348;2023-06-26T11:24:38;4.05;;;3.65;;
7263;SDS011;3673;52.480;13.348;2023-06-26T11:27:05;5.43;;;4.20;;
7263;SDS011;3673;52.480;13.348;2023-06-26T11:29:32;4.47;;;4.10;;
7263;SDS011;3673;52.480;13.348;2023-06-26T11:32:00;5.30;;;4.00;;
7263;SDS011;3673;52.480;13.348;2023-06-26T11:34:31;16.70;;;4.57;;
7263;SDS011;3673;52.480;13.348;2023-06-26T11:37:00;4.47;;;4.07;;
7263;SDS011;3673;52.480;13.348;2023-06-26T11:39:27;5.13;;;4.63;;
7263;SDS011;3673;52.480;13.348;2023-06-26T11:41:54;5.10;;;4.60;;
7263;SDS011;3673;52.480;13.348;2023-06-26T11:44:21;4.97;;;4.25;;
7263;SDS011;3673;52.480;13.348;2023-06-26T11:46:51;4.85;;;4.22;;
7263;SDS011;3673;52.480;13.348;2023-06-26T11:49:20;4.82;;;4.43;;
7263;SDS011;3673;52.480;13.348;2023-06-26T11:51:51;5.93;;;4.60;;
7263;SDS011;3673;52.480;13.348;2023-06-26T11:54:24;4.85;;;4.45;;
7263;SDS011;3673;52.480;13.348;2023-06-26T11:56:53;5.43;;;4.55;;
7263;SDS011;3673;52.480;13.348;2023-06-26T11:59:22;6.40;;;4.70;;
7263;SDS011;3673;52.480;13.348;2023-06-26T12:01:50;6.07;;;4.43;;
7263;SDS011;3673;52.480;13.348;2023-06-26T12:04:18;5.65;;;4.28;;
7263;SDS011;3673;52.480;13.348;2023-06-26T12:06:46;5.25;;;4.75;;
7263;SDS011;3673;52.480;13.348;2023-06-26T12:09:17;5.28;;;4.88;;
7263;SDS011;3673;52.480;13.348;2023-06-26T12:11:46;5.18;;;4.70;;
7263;SDS011;3673;52.480;13.348;2023-06-26T12:14:17;5.70;;;5.05;;
7263;SDS011;3673;52.480;13.348;2023-06-26T12:16:46;5.60;;;5.10;;
7263;SDS011;3673;52.480;13.348;2023-06-26T12:19:14;5.63;;;5.05;;
7263;SDS011;3673;52.480;13.348;2023-06-26T12:21:45;5.75;;;5.15;;
7263;SDS011;3673;52.480;13.348;2023-06-26T12:24:19;4.93;;;4.53;;
7263;SDS011;3673;52.480;13.348;2023-06-26T12:26:49;5.43;;;4.93;;
7263;SDS011;3673;52.480;13.348;2023-06-26T12:29:21;4.90;;;4.50;;
7263;SDS011;3673;52.480;13.348;2023-06-26T12:31:54;5.22;;;4.72;;
7263;SDS011;3673;52.480;13.348;2023-06-26T12:34:26;5.22;;;4.75;;
7263;SDS011;3673;52.480;13.348;2023-06-26T12:36:59;5.43;;;4.93;;
7263;SDS011;3673;52.480;13.348;2023-06-26T12:39:30;5.75;;;5.25;;
7263;SDS011;3673;52.480;13.348;2023-06-26T12:42:13;6.38;;;5.78;;
7263;SDS011;3673;52.480;13.348;2023-06-26T12:44:41;7.85;;;6.43;;
7263;SDS011;3673;52.480;13.348;2023-06-26T12:47:08;7.00;;;5.50;;
7263;SDS011;3673;52.480;13.348;2023-06-26T12:49:35;6.40;;;5.60;;
7263;SDS011;3673;52.480;13.348;2023-06-26T12:52:04;12.63;;;5.80;;
7263;SDS011;3673;52.480;13.348;2023-06-26T12:54:35;9.57;;;8.77;;
7263;SDS011;3673;52.480;13.348;2023-06-26T12:57:02;5.95;;;5.22;;
7263;SDS011;3673;52.480;13.348;2023-06-26T12:59:30;5.93;;;5.43;;
7263;SDS011;3673;52.480;13.348;2023-06-26T13:01:57;5.90;;;5.40;;
7263;SDS011;3673;52.480;13.348;2023-06-26T13:04:24;7.40;;;5.97;;
7263;SDS011;3673;52.480;13.348;2023-06-26T13:06:52;6.45;;;5.82;;
7263;SDS011;3673;52.480;13.348;2023-06-26T13:09:20;8.95;;;5.82;;
7263;SDS011;3673;52.480;13.348;2023-06-26T13:11:48;6.68;;;6.07;;
7263;SDS011;3673;52.480;13.348;2023-06-26T13:14:15;8.57;;;6.60;;
7263;SDS011;3673;52.480;13.348;2023-06-26T13:16:42;7.15;;;6.55;;
7263;SDS011;3673;52.480;13.348;2023-06-26T13:19:09;6.70;;;6.20;;
7263;SDS011;3673;52.480;13.348;2023-06-26T13:21:36;7.22;;;6.53;;
7263;SDS011;3673;52.480;13.348;2023-06-26T13:24:03;7.50;;;6.70;;
7263;SDS011;3673;52.480;13.348;2023-06-26T13:26:31;7.15;;;6.30;;
7263;SDS011;3673;52.480;13.348;2023-06-26T13:29:00;7.28;;;6.63;;
7263;SDS011;3673;52.480;13.348;2023-06-26T13:31:28;6.78;;;6.18;;
7263;SDS011;3673;52.480;13.348;2023-06-26T13:33:56;6.60;;;6.00;;
7263;SDS011;3673;52.480;13.348;2023-06-26T13:36:23;6.88;;;6.15;;
7263;SDS011;3673;52.480;13.348;2023-06-26T13:38:51;6.93;;;6.22;;
7263;SDS011;3673;52.480;13.348;2023-06-26T13:41:20;8.23;;;6.40;;
7263;SDS011;3673;52.480;13.348;2023-06-26T13:43:48;10.20;;;5.88;;
7263;SDS011;3673;52.480;13.348;2023-06-26T13:46:16;9.38;;;6.47;;
7263;SDS011;3673;52.480;13.348;2023-06-26T13:48:43;7.63;;;6.85;;
7263;SDS011;3673;52.480;13.348;2023-06-26T13:51:10;7.18;;;6.57;;
7263;SDS011;3673;52.480;13.348;2023-06-26T13:53:37;7.00;;;6.40;;
7263;SDS011;3673;52.480;13.348;2023-06-26T13:56:05;7.90;;;6.18;;
7263;SDS011;3673;52.480;13.348;2023-06-26T13:58:34;6.68;;;6.13;;
7263;SDS011;3673;52.480;13.348;2023-06-26T14:01:04;7.00;;;6.30;;
7263;SDS011;3673;52.480;13.348;2023-06-26T14:03:32;6.90;;;6.10;;
7263;SDS011;3673;52.480;13.348;2023-06-26T14:05:59;7.72;;;6.28;;
7263;SDS011;3673;52.480;13.348;2023-06-26T14:08:26;6.43;;;5.85;;
7263;SDS011;3673;52.480;13.348;2023-06-26T14:10:52;7.38;;;6.30;;
7263;SDS011;3673;52.480;13.348;2023-06-26T14:13:19;7.85;;;7.15;;
7263;SDS011;3673;52.480;13.348;2023-06-26T14:15:46;7.72;;;6.93;;
7263;SDS011;3673;52.480;13.348;2023-06-26T14:18:13;10.90;;;7.15;;
7263;SDS011;3673;52.480;13.348;2023-06-26T14:20:41;8.75;;;5.60;;
7263;SDS011;3673;52.480;13.348;2023-06-26T14:23:07;11.50;;;4.82;;
7263;SDS011;3673;52.480;13.348;2023-06-26T14:25:34;11.48;;;4.82;;
7263;SDS011;3673;52.480;13.348;2023-06-26T14:28:01;6.80;;;3.22;;
7263;SDS011;3673;52.480;13.348;2023-06-26T14:30:28;7.45;;;3.10;;
7263;SDS011;3673;52.480;13.348;2023-06-26T14:32:55;12.45;;;6.22;;
7263;SDS011;3673;52.480;13.348;2023-06-26T14:35:21;11.35;;;5.55;;
7263;SDS011;3673;52.480;13.348;2023-06-26T14:37:49;10.98;;;5.97;;
7263;SDS011;3673;52.480;13.348;2023-06-26T14:40:16;6.78;;;5.50;;
7263;SDS011;3673;52.480;13.348;2023-06-26T14:42:43;6.50;;;5.80;;
7263;SDS011;3673;52.480;13.348;2023-06-26T14:45:10;8.73;;;6.63;;
7263;SDS011;3673;52.480;13.348;2023-06-26T14:47:37;11.07;;;8.55;;
7263;SDS011;3673;52.480;13.348;2023-06-26T14:50:05;14.02;;;8.07;;
7263;SDS011;3673;52.480;13.348;2023-06-26T14:52:33;10.82;;;7.55;;
7263;SDS011;3673;52.480;13.348;2023-06-26T14:55:01;13.27;;;8.02;;